Time;durP1;ratioP1;P1;durP2;ratioP2;P2;SDS_P1;SDS_P2;PMS_P1;PMS_P2;Temp;Humidity;BMP_temperature;BMP_pressure;BME280_temperature;BME280_humidity;BME280_pressure;Samples;Min_cycle;Max_cycle;Signal;HPM_P1;HPM_P2
2022/01/25 00:26:40;;;;;;;27.23;17.90;;;2.80;99.90;;;;;;5014248;28;20426;-60
2022/01/25 00:29:10;;;;;;;21.70;16.80;;;2.70;99.90;;;;;;5014330;28;20438;-60
2022/01/25 00:31:38;;;;;;;24.37;17.37;;;2.60;99.90;;;;;;5014929;28;20429;-56
2022/01/25 00:34:04;;;;;;;27.37;20.30;;;2.50;99.90;;;;;;5014581;28;20427;-61
2022/01/25 00:36:30;;;;;;;23.90;17.87;;;2.60;99.90;;;;;;5013938;28;20403;-60
2022/01/25 00:38:57;;;;;;;21.07;16.00;;;2.50;99.90;;;;;;5014136;28;20497;-61
2022/01/25 00:41:24;;;;;;;21.70;17.03;;;2.30;99.90;;;;;;5014699;28;20411;-61
2022/01/25 00:43:51;;;;;;;25.20;19.30;;;2.20;99.90;;;;;;5014261;28;20441;-60
2022/01/25 00:46:19;;;;;;;25.87;18.33;;;2.30;99.90;;;;;;5014285;28;20425;-60
2022/01/25 00:48:49;;;;;;;22.50;17.53;;;2.30;99.90;;;;;;5014325;28;20418;-60
2022/01/25 00:54:14;;;;;;;23.30;18.27;;;2.30;99.90;;;;;;5013915;28;20783;-60
2022/01/25 00:56:46;;;;;;;21.67;17.17;;;2.40;99.90;;;;;;5014798;28;20474;-60
2022/01/25 00:59:18;;;;;;;22.53;18.53;;;2.50;99.90;;;;;;5013725;28;20399;-60
2022/01/25 01:01:45;;;;;;;24.70;18.50;;;2.50;99.90;;;;;;5014791;28;20872;-60
2022/01/25 01:04:12;;;;;;;24.00;17.87;;;2.60;99.90;;;;;;5012866;28;20477;-59
2022/01/25 01:06:40;;;;;;;23.07;17.80;;;2.60;99.90;;;;;;5014170;28;20434;-61
2022/01/25 01:09:10;;;;;;;22.07;18.00;;;2.60;99.90;;;;;;5014078;28;20795;-61
2022/01/25 01:12:00;;;;;;;21.90;16.30;;;2.70;99.90;;;;;;5014262;28;20820;-60
2022/01/25 01:14:51;;;;;;;28.13;19.10;;;2.70;99.90;;;;;;5013471;28;20494;-60
2022/01/25 01:30:46;;;;;;;24.70;17.77;;;2.30;99.90;;;;;;5013678;28;20474;-60
2022/01/25 01:48:24;;;;;;;22.40;19.30;;;2.20;99.90;;;;;;5013015;28;20872;-60
2022/01/25 01:50:50;;;;;;;27.23;21.20;;;2.20;99.90;;;;;;5015944;28;20421;-58
2022/01/25 01:53:16;;;;;;;27.90;22.00;;;2.20;99.90;;;;;;5013680;28;20808;-60
2022/01/25 01:55:41;;;;;;;21.67;18.60;;;2.20;99.90;;;;;;5013391;28;20190;-60
2022/01/25 01:58:07;;;;;;;23.07;19.23;;;2.20;99.90;;;;;;5012927;28;20176;-59
2022/01/25 02:00:39;;;;;;;24.50;19.93;;;2.30;99.90;;;;;;5013472;28;20172;-60
2022/01/25 02:03:06;;;;;;;23.43;18.73;;;2.30;99.90;;;;;;5041494;22;20235;-60
2022/01/25 02:05:32;;;;;;;27.83;20.97;;;2.30;99.90;;;;;;5032820;28;20476;-60
2022/01/25 02:08:00;;;;;;;25.90;19.33;;;2.10;99.90;;;;;;5015060;28;20779;-60
2022/01/25 02:10:26;;;;;;;32.43;23.20;;;2.20;99.90;;;;;;5032611;28;20547;-57
2022/01/25 02:12:52;;;;;;;24.87;19.70;;;2.20;99.90;;;;;;5018728;28;20964;-58
2022/01/25 02:15:20;;;;;;;26.10;20.57;;;2.20;99.90;;;;;;5050537;28;20397;-59
2022/01/25 02:22:20;;;;;;;22.43;19.00;;;2.20;99.90;;;;;;5033053;28;20425;-59
2022/01/25 02:23:22;;;;;;;27.90;21.03;;;2.30;99.90;;;;;;5032963;28;20432;-59
2022/01/25 02:25:50;;;;;;;31.83;23.57;;;2.30;99.90;;;;;;5033406;28;20849;-59
2022/01/25 02:28:17;;;;;;;25.57;20.27;;;2.40;99.90;;;;;;5032941;28;20421;-59
2022/01/25 02:30:44;;;;;;;25.40;18.00;;;2.30;99.90;;;;;;5033525;28;20798;-60
2022/01/25 02:33:10;;;;;;;29.57;21.93;;;2.30;99.90;;;;;;5032430;28;20425;-59
2022/01/25 02:35:36;;;;;;;26.53;20.40;;;2.20;99.90;;;;;;5032603;28;20394;-59
2022/01/25 02:38:02;;;;;;;29.80;22.83;;;2.20;99.90;;;;;;5032540;28;20419;-60
2022/01/25 02:40:28;;;;;;;28.67;20.80;;;2.10;99.90;;;;;;5033103;28;20532;-58
2022/01/25 02:42:54;;;;;;;29.03;23.23;;;2.00;99.90;;;;;;5031816;28;20890;-60
2022/01/25 02:45:21;;;;;;;26.00;20.90;;;2.10;99.90;;;;;;5032455;28;20198;-60
2022/01/25 02:50:31;;;;;;;35.90;25.27;;;2.10;99.90;;;;;;5032817;28;20428;-59
2022/01/25 02:52:56;;;;;;;28.43;21.40;;;2.10;99.90;;;;;;5033470;28;20422;-60
2022/01/25 02:55:22;;;;;;;32.43;25.20;;;2.00;99.90;;;;;;5031572;28;20214;-59
2022/01/25 02:57:48;;;;;;;35.10;24.30;;;1.90;99.90;;;;;;5032669;28;20164;-59
2022/01/25 03:00:15;;;;;;;35.77;25.50;;;1.90;99.90;;;;;;5033939;28;20408;-60
2022/01/25 03:02:41;;;;;;;27.03;20.00;;;1.90;99.90;;;;;;5035873;28;20406;-58
2022/01/25 03:05:07;;;;;;;33.27;23.63;;;1.90;99.90;;;;;;5035782;28;20812;-58
2022/01/25 03:07:34;;;;;;;33.60;23.60;;;2.00;99.90;;;;;;5035913;28;20225;-59
2022/01/25 03:10:00;;;;;;;29.17;22.70;;;2.00;99.90;;;;;;5035935;28;20400;-60
2022/01/25 03:12:41;;;;;;;31.47;24.83;;;2.00;99.90;;;;;;5035983;28;20409;-59
2022/01/25 03:17:52;;;;;;;37.53;27.07;;;1.90;99.90;;;;;;5036134;28;20524;-59
2022/01/25 03:20:22;;;;;;;29.50;23.87;;;1.90;99.90;;;;;;5035730;28;20396;-59
2022/01/25 03:25:20;;;;;;;28.97;23.30;;;1.90;99.90;;;;;;5035572;28;20457;-59
2022/01/25 03:27:46;;;;;;;33.40;23.00;;;1.90;99.90;;;;;;5035586;28;20924;-59
2022/01/25 03:30:11;;;;;;;37.73;25.80;;;1.90;99.90;;;;;;5035503;28;20403;-60
2022/01/25 03:32:37;;;;;;;30.87;25.20;;;1.90;99.90;;;;;;5035691;28;20217;-56
2022/01/25 03:35:03;;;;;;;27.13;20.53;;;1.90;99.90;;;;;;5035197;28;20181;-59
2022/01/25 03:37:29;;;;;;;25.60;20.93;;;1.90;99.90;;;;;;5035369;28;20175;-59
2022/01/25 03:39:55;;;;;;;28.07;21.90;;;1.90;99.90;;;;;;5034449;28;20402;-59
2022/01/25 03:42:21;;;;;;;34.77;25.40;;;1.80;99.90;;;;;;5035357;28;20172;-58
2022/01/25 03:44:46;;;;;;;31.10;24.17;;;1.70;99.90;;;;;;5034847;28;20207;-59
2022/01/25 03:47:16;;;;;;;34.47;25.17;;;1.60;99.90;;;;;;5035142;28;20174;-60
2022/01/25 03:49:52;;;;;;;36.47;25.70;;;1.60;99.90;;;;;;5035456;28;20170;-58
2022/01/25 03:52:28;;;;;;;35.50;26.47;;;1.50;99.90;;;;;;5035334;28;20877;-59
2022/01/25 03:54:54;;;;;;;32.90;23.90;;;1.60;99.90;;;;;;5035133;28;20428;-59
2022/01/25 03:57:20;;;;;;;34.33;26.37;;;1.60;99.90;;;;;;5035295;28;20415;-59
2022/01/25 03:59:46;;;;;;;35.43;25.67;;;1.50;99.90;;;;;;5017369;28;20420;-59
2022/01/25 04:02:12;;;;;;;39.67;27.10;;;1.40;99.90;;;;;;5034984;28;20906;-59
2022/01/25 04:04:38;;;;;;;31.40;23.83;;;1.50;99.90;;;;;;5033639;28;20210;-59
2022/01/25 04:07:09;;;;;;;29.83;22.83;;;1.60;99.90;;;;;;5034860;28;20407;-59
2022/01/25 04:09:36;;;;;;;40.27;26.53;;;1.60;99.90;;;;;;5035105;28;20390;-60
2022/01/25 04:12:03;;;;;;;30.67;23.57;;;1.70;99.90;;;;;;5034714;28;20394;-60
2022/01/25 04:14:29;;;;;;;33.10;25.80;;;1.70;99.90;;;;;;5034627;28;20462;-59
2022/01/25 04:17:03;;;;;;;29.23;22.87;;;1.70;99.90;;;;;;5034587;28;20416;-58
2022/01/25 04:27:10;;;;;;;35.87;24.30;;;1.70;99.90;;;;;;5034431;28;20766;-58
2022/01/25 04:29:36;;;;;;;30.00;23.80;;;1.70;99.90;;;;;;5034482;28;20406;-57
2022/01/25 04:32:05;;;;;;;31.50;23.33;;;1.80;99.90;;;;;;5034357;28;20397;-59
2022/01/25 04:53:14;;;;;;;28.57;21.47;;;1.60;99.90;;;;;;5034424;28;20774;-59
2022/01/25 04:55:54;;;;;;;27.30;21.50;;;1.60;99.90;;;;;;5034163;28;20238;-59
2022/01/25 04:58:28;;;;;;;33.20;23.97;;;1.60;99.90;;;;;;5034343;28;20473;-59
2022/01/25 05:00:54;;;;;;;28.37;21.67;;;1.60;99.90;;;;;;5033732;28;20399;-59
2022/01/25 05:03:27;;;;;;;33.93;24.20;;;1.60;99.90;;;;;;5033672;28;20464;-59
2022/01/25 05:05:58;;;;;;;29.87;22.33;;;1.60;99.90;;;;;;5033721;28;20175;-59
2022/01/25 05:11:04;;;;;;;29.90;21.70;;;1.50;99.90;;;;;;5033941;28;20440;-58
2022/01/25 05:13:52;;;;;;;31.57;24.23;;;1.50;99.90;;;;;;5014180;28;20509;-59
2022/01/25 05:16:32;;;;;;;34.83;24.30;;;1.40;99.90;;;;;;5014306;28;20395;-59
2022/01/25 05:19:20;;;;;;;34.17;24.27;;;1.40;99.90;;;;;;5024408;28;20443;-57
2022/01/25 05:22:04;;;;;;;28.63;20.87;;;1.30;99.90;;;;;;5033380;28;20394;-58
2022/01/25 05:24:36;;;;;;;35.80;23.87;;;1.40;99.90;;;;;;5032000;28;20560;-59
2022/01/25 05:27:09;;;;;;;31.87;23.17;;;1.50;99.90;;;;;;5033453;28;20406;-58
2022/01/25 05:29:35;;;;;;;34.50;26.97;;;1.50;99.90;;;;;;5032496;28;20471;-59
2022/01/25 05:32:01;;;;;;;33.50;27.00;;;1.50;99.90;;;;;;5033429;28;20965;-57
2022/01/25 05:34:26;;;;;;;32.80;25.63;;;1.60;99.90;;;;;;5033217;28;20437;-57
2022/01/25 05:36:53;;;;;;;31.60;24.07;;;1.50;99.90;;;;;;5033262;28;20178;-54
2022/01/25 05:39:24;;;;;;;39.17;28.50;;;1.60;99.90;;;;;;5031812;28;20183;-57
2022/01/25 05:42:00;;;;;;;37.40;27.20;;;1.50;99.90;;;;;;5033286;28;20465;-57
2022/01/25 05:44:38;;;;;;;29.27;24.10;;;1.50;99.90;;;;;;5032882;28;20451;-59
2022/01/25 05:47:08;;;;;;;31.40;24.33;;;1.50;99.90;;;;;;5033129;28;20939;-59
2022/01/25 05:49:37;;;;;;;32.23;23.80;;;1.40;99.90;;;;;;5032736;28;20409;-56
2022/01/25 05:52:08;;;;;;;33.57;25.60;;;1.40;99.90;;;;;;5033321;28;20440;-59
2022/01/25 05:54:35;;;;;;;31.90;24.40;;;1.40;99.90;;;;;;5032671;28;20432;-59
2022/01/25 05:57:00;;;;;;;28.63;22.67;;;1.30;99.90;;;;;;5032980;28;20444;-57
2022/01/25 05:59:26;;;;;;;27.73;21.10;;;1.30;99.90;;;;;;5033298;28;20877;-58
2022/01/25 06:01:52;;;;;;;37.37;26.17;;;1.40;99.90;;;;;;5033079;28;20164;-59
2022/01/25 06:04:18;;;;;;;32.13;23.77;;;1.40;99.90;;;;;;5031812;28;20209;-56
2022/01/25 06:06:43;;;;;;;38.30;25.30;;;1.30;99.90;;;;;;5032191;28;20179;-59
2022/01/25 06:09:09;;;;;;;34.53;24.33;;;1.40;99.90;;;;;;5032488;28;20403;-59
2022/01/25 06:11:35;;;;;;;39.30;26.37;;;1.40;99.90;;;;;;5034788;28;20238;-56
2022/01/25 06:14:01;;;;;;;36.10;28.30;;;1.40;99.90;;;;;;5032888;28;20421;-59
2022/01/25 06:16:30;;;;;;;32.00;22.33;;;1.30;99.90;;;;;;5033045;28;20164;-59
2022/01/25 06:18:56;;;;;;;31.40;24.93;;;1.40;99.90;;;;;;5032769;28;20858;-58
2022/01/25 06:21:22;;;;;;;38.93;27.87;;;1.40;99.90;;;;;;5032350;28;20410;-60
2022/01/25 06:23:48;;;;;;;35.10;25.07;;;1.40;99.90;;;;;;5032585;28;20829;-59
2022/01/25 06:26:13;;;;;;;34.00;24.70;;;1.40;99.90;;;;;;5032336;28;20215;-59
2022/01/25 06:28:39;;;;;;;36.27;26.77;;;1.40;99.90;;;;;;5032800;28;20541;-58
2022/01/25 06:31:05;;;;;;;34.00;26.07;;;1.40;99.90;;;;;;5032617;28;20167;-59
2022/01/25 06:33:30;;;;;;;36.67;26.87;;;1.40;99.90;;;;;;5032953;28;20244;-59
2022/01/25 06:35:56;;;;;;;31.13;24.77;;;1.40;99.90;;;;;;5026282;28;20197;-58
2022/01/25 06:38:22;;;;;;;31.87;23.37;;;1.40;99.90;;;;;;5016598;28;20274;-59
2022/01/25 06:40:48;;;;;;;28.50;21.90;;;1.40;99.90;;;;;;5029081;28;20474;-59
2022/01/25 06:43:13;;;;;;;29.20;21.87;;;1.50;99.90;;;;;;5036191;28;20556;-59
2022/01/25 06:45:41;;;;;;;35.00;26.70;;;1.40;99.90;;;;;;5036055;28;20698;-59
2022/01/25 06:48:07;;;;;;;33.23;23.80;;;1.50;99.90;;;;;;5036431;28;20221;-58
2022/01/25 06:50:33;;;;;;;34.43;25.33;;;1.40;99.90;;;;;;5036463;28;20438;-57
2022/01/25 06:52:59;;;;;;;35.63;25.60;;;1.50;99.90;;;;;;5036323;28;20431;-57
2022/01/25 06:55:25;;;;;;;34.47;27.00;;;1.50;99.90;;;;;;5035655;28;20472;-59
2022/01/25 06:57:51;;;;;;;28.67;22.03;;;1.40;99.90;;;;;;5036019;28;20441;-59
2022/01/25 07:00:22;;;;;;;37.77;25.20;;;1.40;99.90;;;;;;5035741;28;20293;-59
2022/01/25 07:02:48;;;;;;;33.33;25.13;;;1.40;99.90;;;;;;5033550;28;20496;-57
2022/01/25 07:05:14;;;;;;;32.53;24.67;;;1.50;99.90;;;;;;5026544;28;20457;-59
2022/01/25 07:07:40;;;;;;;41.60;28.77;;;1.40;99.90;;;;;;5026253;28;20497;-58
2022/01/25 07:10:07;;;;;;;34.27;26.70;;;1.50;99.90;;;;;;5026601;28;20211;-58
2022/01/25 07:12:34;;;;;;;34.30;24.83;;;1.40;99.90;;;;;;5005013;28;21448;-58
2022/01/25 07:14:59;;;;;;;38.33;27.37;;;1.40;99.90;;;;;;5013764;28;20556;-57
2022/01/25 07:17:25;;;;;;;37.47;27.20;;;1.40;99.90;;;;;;5006805;28;20461;-56
2022/01/25 07:19:51;;;;;;;32.43;22.20;;;1.40;99.90;;;;;;5005924;28;20444;-58
2022/01/25 07:22:17;;;;;;;35.67;26.60;;;1.40;99.90;;;;;;5006860;28;20655;-56
2022/01/25 07:24:43;;;;;;;37.90;26.40;;;1.30;99.90;;;;;;5006570;28;20458;-57
2022/01/25 07:27:09;;;;;;;41.90;26.73;;;1.40;99.90;;;;;;5006845;28;20430;-57
2022/01/25 07:29:35;;;;;;;36.07;24.80;;;1.30;99.90;;;;;;5009258;28;20178;-56
2022/01/25 07:32:00;;;;;;;35.10;23.87;;;1.30;99.90;;;;;;5025970;28;20247;-55
2022/01/25 07:34:27;;;;;;;35.93;26.57;;;1.30;99.90;;;;;;5026906;28;20449;-64
2022/01/25 07:36:53;;;;;;;34.03;23.70;;;1.40;99.90;;;;;;5035127;28;20178;-57
2022/01/25 07:39:19;;;;;;;37.67;27.77;;;1.40;99.90;;;;;;5035356;28;20936;-57
2022/01/25 07:41:46;;;;;;;31.50;24.37;;;1.50;99.90;;;;;;5033571;28;20515;-55
2022/01/25 07:44:12;;;;;;;37.17;28.00;;;1.50;99.90;;;;;;5029797;28;20499;-59
2022/01/25 07:46:38;;;;;;;36.53;25.00;;;1.50;99.90;;;;;;5025467;28;20453;-57
2022/01/25 07:49:04;;;;;;;31.63;23.07;;;1.50;99.90;;;;;;5025929;28;20466;-57
2022/01/25 07:51:30;;;;;;;39.60;28.90;;;1.60;99.90;;;;;;5025616;28;20413;-58
2022/01/25 07:53:57;;;;;;;27.73;21.37;;;1.60;99.90;;;;;;5025541;28;20437;-55
2022/01/25 07:56:23;;;;;;;28.77;23.60;;;1.60;99.90;;;;;;5025447;28;20421;-58
2022/01/25 07:58:49;;;;;;;35.80;26.20;;;1.70;99.90;;;;;;5031800;28;20434;-58
2022/01/25 08:01:15;;;;;;;33.63;25.00;;;1.80;99.90;;;;;;5035032;28;20416;-58
2022/01/25 08:03:42;;;;;;;32.87;22.87;;;1.80;99.90;;;;;;5036169;28;20445;-58
2022/01/25 08:06:09;;;;;;;25.47;20.37;;;1.80;99.90;;;;;;5033793;28;20546;-57
2022/01/25 08:08:35;;;;;;;30.80;23.30;;;1.80;99.90;;;;;;5034759;28;20825;-59
2022/01/25 08:11:01;;;;;;;32.37;22.77;;;1.90;99.90;;;;;;5034604;28;20476;-59
2022/01/25 08:13:27;;;;;;;28.37;21.97;;;2.00;99.90;;;;;;5032275;28;20445;-58
2022/01/25 08:15:52;;;;;;;29.80;21.67;;;2.00;99.90;;;;;;5037052;28;20231;-59
2022/01/25 08:18:18;;;;;;;38.93;26.53;;;2.10;99.90;;;;;;5034515;28;20171;-58
2022/01/25 08:20:44;;;;;;;32.10;24.20;;;2.10;99.90;;;;;;5034395;28;20546;-56
2022/01/25 08:23:09;;;;;;;28.23;23.00;;;2.20;99.90;;;;;;5034721;28;20675;-58
2022/01/25 08:25:35;;;;;;;31.77;24.10;;;2.20;99.90;;;;;;5033469;28;20225;-58
2022/01/25 08:28:01;;;;;;;30.43;23.57;;;2.20;99.90;;;;;;5034752;28;20239;-58
2022/01/25 08:30:27;;;;;;;29.43;22.17;;;2.30;99.90;;;;;;5034148;28;20249;-58
2022/01/25 08:32:53;;;;;;;25.57;20.10;;;2.30;99.90;;;;;;5033121;28;20503;-59
2022/01/25 08:35:19;;;;;;;28.43;23.23;;;2.40;99.90;;;;;;5034319;28;20810;-59
2022/01/25 08:37:45;;;;;;;30.83;23.27;;;2.50;99.90;;;;;;5034545;28;20203;-58
2022/01/25 08:40:11;;;;;;;29.50;21.97;;;2.50;99.90;;;;;;5033568;28;20402;-55
2022/01/25 08:42:37;;;;;;;31.73;24.80;;;2.60;99.90;;;;;;5033946;28;20410;-57
2022/01/25 08:45:05;;;;;;;32.43;23.23;;;2.60;99.90;;;;;;5034292;28;20524;-58
2022/01/25 08:47:30;;;;;;;35.63;27.10;;;2.70;99.90;;;;;;5033720;28;20413;-59
2022/01/25 08:49:56;;;;;;;33.10;23.80;;;2.70;99.90;;;;;;5034058;28;20448;-58
2022/01/25 08:52:22;;;;;;;32.73;24.37;;;2.70;99.90;;;;;;5034235;28;20179;-59
2022/01/25 08:54:47;;;;;;;32.03;24.20;;;2.70;99.90;;;;;;5033740;28;20191;-57
2022/01/25 08:57:13;;;;;;;30.80;23.53;;;2.90;99.90;;;;;;5033017;28;20183;-58
2022/01/25 08:59:39;;;;;;;35.33;26.17;;;3.00;99.90;;;;;;5033778;28;20172;-58
2022/01/25 09:02:04;;;;;;;30.93;22.67;;;3.00;99.90;;;;;;5033799;28;20202;-58
2022/01/25 09:04:30;;;;;;;35.67;26.10;;;3.10;99.90;;;;;;5033256;28;20580;-58
2022/01/25 09:06:56;;;;;;;27.77;21.50;;;3.20;99.90;;;;;;5033690;28;20263;-57
2022/01/25 09:09:21;;;;;;;29.37;24.03;;;3.20;99.90;;;;;;5033863;28;20175;-57
2022/01/25 09:11:47;;;;;;;31.40;22.87;;;3.20;99.90;;;;;;5034023;28;20694;-58
2022/01/25 09:14:13;;;;;;;28.63;23.40;;;3.30;99.90;;;;;;5033603;28;20530;-57
2022/01/25 09:16:40;;;;;;;32.43;22.97;;;3.30;99.90;;;;;;5033538;28;20487;-56
2022/01/25 09:19:06;;;;;;;30.03;23.60;;;3.40;99.90;;;;;;5033367;28;20410;-58
2022/01/25 09:21:32;;;;;;;33.03;25.20;;;3.40;99.90;;;;;;5033455;28;20903;-59
2022/01/25 09:23:58;;;;;;;30.50;22.73;;;3.50;99.90;;;;;;5033662;28;20859;-57
2022/01/25 09:26:24;;;;;;;30.90;24.80;;;3.60;99.90;;;;;;5033313;28;20453;-56
2022/01/25 09:28:51;;;;;;;30.37;24.40;;;3.70;99.90;;;;;;5033375;28;20225;-58
2022/01/25 09:31:17;;;;;;;33.27;25.67;;;3.80;99.90;;;;;;5033154;28;20179;-58
2022/01/25 09:33:42;;;;;;;33.63;26.73;;;3.90;99.90;;;;;;5021890;28;21013;-59
2022/01/25 09:36:08;;;;;;;41.83;29.87;;;3.90;99.90;;;;;;5013801;28;20426;-59
2022/01/25 09:38:34;;;;;;;38.60;29.27;;;4.00;99.90;;;;;;5013573;28;20533;-59
2022/01/25 09:41:00;;;;;;;33.53;26.57;;;4.10;99.90;;;;;;5013203;28;20548;-59
2022/01/25 09:43:27;;;;;;;32.60;24.70;;;4.10;99.90;;;;;;5032978;28;20436;-62
2022/01/25 09:45:53;;;;;;;32.70;26.60;;;4.20;99.90;;;;;;5033329;28;20222;-60
2022/01/25 09:48:19;;;;;;;33.10;25.43;;;4.30;99.90;;;;;;5033137;28;20390;-59
2022/01/25 09:50:45;;;;;;;36.73;27.17;;;4.40;99.90;;;;;;5033336;28;20417;-60
2022/01/25 09:53:11;;;;;;;38.43;28.50;;;4.40;99.90;;;;;;5033466;28;20183;-58
2022/01/25 09:55:42;;;;;;;36.87;28.37;;;4.50;99.90;;;;;;5032884;28;20474;-59
2022/01/25 09:58:09;;;;;;;39.03;28.73;;;4.60;99.90;;;;;;5031944;28;20175;-59
2022/01/25 10:00:36;;;;;;;31.40;24.77;;;4.70;99.90;;;;;;5032809;28;20782;-60
2022/01/25 10:03:31;;;;;;;33.33;27.33;;;4.80;99.90;;;;;;5032457;28;20429;-61
2022/01/25 10:06:00;;;;;;;35.13;27.70;;;5.00;99.90;;;;;;5032071;28;20207;-61
2022/01/25 10:08:30;;;;;;;36.70;28.00;;;4.90;99.90;;;;;;5033953;28;20818;-60
2022/01/25 10:11:02;;;;;;;37.53;28.73;;;4.80;99.90;;;;;;5039632;28;20529;-60
2022/01/25 10:13:30;;;;;;;38.90;28.17;;;4.70;99.90;;;;;;5039620;28;20421;-61
2022/01/25 10:15:59;;;;;;;38.37;28.43;;;4.70;99.90;;;;;;5039379;28;20406;-60
2022/01/25 10:18:50;;;;;;;39.00;30.23;;;4.80;99.90;;;;;;5039689;28;20428;-61
2022/01/25 10:21:24;;;;;;;38.07;28.80;;;5.00;99.90;;;;;;5039302;28;20386;-61
2022/01/25 10:24:00;;;;;;;32.87;25.90;;;4.80;99.90;;;;;;5041252;28;20429;-61
2022/01/25 10:26:26;;;;;;;31.03;26.67;;;4.90;99.90;;;;;;5039626;28;20408;-61
2022/01/25 10:28:52;;;;;;;30.80;25.30;;;4.80;99.90;;;;;;5039095;28;20398;-61
2022/01/25 10:31:17;;;;;;;33.53;26.67;;;4.70;99.90;;;;;;5039222;28;20525;-61
2022/01/25 10:33:52;;;;;;;34.73;27.17;;;4.60;99.90;;;;;;5039078;28;20441;-60
2022/01/25 10:36:22;;;;;;;32.23;26.20;;;4.60;99.90;;;;;;5039140;28;20413;-61
2022/01/25 10:38:50;;;;;;;37.63;29.00;;;4.70;99.90;;;;;;5039487;28;20387;-53
2022/01/25 10:41:22;;;;;;;34.37;27.00;;;4.80;99.90;;;;;;5039315;28;20402;-57
2022/01/25 10:43:50;;;;;;;35.70;26.77;;;4.80;99.90;;;;;;5039219;28;20852;-54
2022/01/25 10:55:06;;;;;;;33.75;29.05;;;4.20;99.90;;;;;;5069982;28;20437;-70
2022/01/25 10:57:31;;;;;;;35.50;27.40;;;4.30;99.90;;;;;;5070883;28;20311;-70
2022/01/25 11:00:00;;;;;;;34.50;29.33;;;4.50;99.90;;;;;;5068951;28;20817;-70
2022/01/25 11:02:26;;;;;;;35.70;27.23;;;4.90;99.90;;;;;;5061299;28;20253;-69
2022/01/25 11:05:03;;;;;;;35.33;27.90;;;5.00;99.90;;;;;;5064581;28;20499;-70
2022/01/25 11:15:59;;;;;;;30.87;26.50;;;6.90;99.90;;;;;;5056581;28;20448;-73
2022/01/25 11:18:25;;;;;;;28.93;23.90;;;8.20;99.90;;;;;;5062849;28;20407;-74
2022/01/25 11:20:52;;;;;;;30.93;25.97;;;9.60;99.90;;;;;;5069780;28;20472;-72
2022/01/25 11:23:19;;;;;;;29.60;24.03;;;10.00;99.90;;;;;;5073761;28;20911;-72
2022/01/25 11:25:46;;;;;;;29.10;23.73;;;11.60;99.90;;;;;;5074004;28;20814;-72
2022/01/25 11:28:12;;;;;;;32.97;23.33;;;12.40;99.60;;;;;;5071881;28;20422;-74
2022/01/25 11:30:40;;;;;;;36.03;23.73;;;13.50;98.20;;;;;;5072882;28;20832;-73
2022/01/25 11:33:09;;;;;;;24.93;22.23;;;14.30;95.70;;;;;;5089181;22;20531;-74
2022/01/25 11:35:36;;;;;;;27.20;22.47;;;14.60;94.60;;;;;;5068974;28;20412;-74
2022/01/25 11:38:02;;;;;;;26.67;23.83;;;13.90;93.50;;;;;;5071379;28;20417;-73
2022/01/25 11:40:31;;;;;;;26.90;24.00;;;12.80;96.10;;;;;;5055835;28;20788;-74
2022/01/25 11:43:00;;;;;;;27.00;22.30;;;14.30;95.00;;;;;;5072654;28;20561;-74
2022/01/25 11:45:31;;;;;;;29.33;23.37;;;15.10;93.50;;;;;;5050874;28;20471;-70
2022/01/25 11:47:58;;;;;;;27.67;24.60;;;14.00;93.10;;;;;;5051510;28;20417;-68
2022/01/25 11:50:36;;;;;;;27.20;23.57;;;12.10;95.60;;;;;;5069315;28;20927;-70
2022/01/25 11:53:07;;;;;;;28.47;25.30;;;12.40;96.60;;;;;;5058743;28;20791;-70
2022/01/25 11:55:37;;;;;;;28.43;25.13;;;13.00;95.70;;;;;;5060427;28;20396;-70
2022/01/25 11:58:13;;;;;;;30.47;26.23;;;13.20;95.10;;;;;;5059969;28;20406;-68
2022/01/25 12:00:46;;;;;;;29.87;24.33;;;12.80;95.40;;;;;;5059289;28;20412;-71
2022/01/25 12:03:32;;;;;;;29.03;25.00;;;13.10;95.70;;;;;;5059597;28;20818;-73
2022/01/25 12:06:05;;;;;;;25.67;22.97;;;14.40;94.00;;;;;;5048491;28;20811;-72
2022/01/25 12:14:13;;;;;;;28.77;25.47;;;13.90;94.10;;;;;;5047672;28;20546;-73
2022/01/25 12:16:44;;;;;;;31.10;25.77;;;12.90;94.70;;;;;;5046912;28;20416;-75
2022/01/25 12:19:11;;;;;;;29.17;26.00;;;12.20;95.80;;;;;;5046455;28;20889;-72
2022/01/25 12:21:51;;;;;;;33.77;25.17;;;12.70;96.60;;;;;;5044603;28;20446;-72
2022/01/25 12:24:30;;;;;;;31.03;26.83;;;12.80;95.40;;;;;;5045898;28;20447;-72
2022/01/25 12:27:10;;;;;;;29.87;26.27;;;14.10;94.50;;;;;;5046972;28;20431;-72
2022/01/25 12:29:42;;;;;;;31.20;28.00;;;13.20;94.70;;;;;;5028414;28;20420;-72
2022/01/25 12:32:40;;;;;;;32.80;28.77;;;13.30;94.80;;;;;;5046601;28;20453;-73
2022/01/25 12:35:05;;;;;;;32.03;27.90;;;11.80;96.20;;;;;;5045225;28;20420;-73
2022/01/25 12:37:52;;;;;;;35.80;29.73;;;12.20;98.10;;;;;;5046067;28;20407;-73
2022/01/25 12:40:31;;;;;;;30.10;25.90;;;12.90;96.10;;;;;;5045978;28;20180;-74
2022/01/25 12:43:33;;;;;;;33.67;29.70;;;13.00;96.10;;;;;;5045971;28;20456;-71
2022/01/25 12:46:14;;;;;;;35.00;28.33;;;11.90;97.20;;;;;;4986368;28;20436;-69
2022/01/25 12:48:42;;;;;;;32.33;27.97;;;12.20;96.60;;;;;;5045752;28;20400;-70
2022/01/25 12:51:11;;;;;;;33.27;29.63;;;11.00;98.50;;;;;;5045511;28;20423;-69
2022/01/25 12:53:40;;;;;;;31.30;27.90;;;11.60;97.60;;;;;;5027261;28;20431;-66
2022/01/25 12:56:34;;;;;;;31.47;27.13;;;11.40;97.80;;;;;;5045264;28;20444;-68
2022/01/25 12:59:07;;;;;;;31.10;27.13;;;12.10;97.00;;;;;;5043348;28;20850;-69
2022/01/25 13:01:36;;;;;;;31.47;27.07;;;13.00;96.70;;;;;;5045496;28;20467;-70
2022/01/25 13:04:04;;;;;;;34.60;29.10;;;12.80;96.10;;;;;;5045595;28;20456;-69
2022/01/25 13:06:32;;;;;;;36.27;30.07;;;11.10;97.50;;;;;;5045509;28;20401;-68
2022/01/25 13:11:58;;;;;;;32.67;29.20;;;9.30;99.90;;;;;;5045488;28;20421;-69
2022/01/25 13:16:59;;;;;;;34.03;29.00;;;8.30;99.90;;;;;;5044363;28;20798;-68
2022/01/25 13:19:31;;;;;;;34.30;27.67;;;8.20;99.90;;;;;;5045270;28;20507;-67
2022/01/25 13:22:14;;;;;;;35.60;29.07;;;7.80;99.90;;;;;;5045518;28;20798;-69
2022/01/25 13:25:33;;;;;;;38.47;31.47;;;7.80;99.90;;;;;;5043972;28;20450;-70
2022/01/25 13:27:35;;;;;;;35.77;29.00;;;7.40;99.90;;;;;;5031001;28;20898;-69
2022/01/25 13:32:53;;;;;;;37.20;29.10;;;7.30;99.90;;;;;;5044905;28;20805;-70
2022/01/25 13:35:31;;;;;;;32.23;27.77;;;7.30;99.90;;;;;;5044363;28;20812;-69
2022/01/25 13:38:10;;;;;;;37.50;28.57;;;6.90;99.90;;;;;;5044530;28;20394;-71
2022/01/25 13:45:57;;;;;;;36.97;27.93;;;6.50;99.90;;;;;;5043409;28;20419;-70
2022/01/25 13:48:26;;;;;;;35.50;29.23;;;6.50;99.90;;;;;;5044547;28;20444;-70
2022/01/25 13:51:00;;;;;;;39.57;30.43;;;6.80;99.90;;;;;;5044079;28;20409;-70
2022/01/25 13:53:27;;;;;;;41.00;30.90;;;6.70;99.90;;;;;;5044442;28;20447;-69
2022/01/25 13:55:56;;;;;;;37.27;29.80;;;6.60;99.90;;;;;;5044350;28;20748;-68
2022/01/25 13:58:23;;;;;;;41.03;31.13;;;6.80;99.90;;;;;;5042963;28;20425;-69
2022/01/25 14:00:50;;;;;;;36.70;29.10;;;6.70;99.90;;;;;;5043511;28;20409;-68
2022/01/25 14:03:18;;;;;;;39.67;31.57;;;6.70;99.90;;;;;;5043818;28;21038;-70
2022/01/25 14:05:44;;;;;;;42.13;31.80;;;6.70;99.90;;;;;;5042796;28;20421;-68
2022/01/25 14:08:10;;;;;;;38.30;30.97;;;6.60;99.90;;;;;;5044231;28;20861;-69
2022/01/25 14:10:36;;;;;;;39.97;31.43;;;6.60;99.90;;;;;;5044317;28;20211;-69
2022/01/25 14:24:05;;;;;;;43.57;33.00;;;6.10;99.90;;;;;;5043999;28;20453;-70
2022/01/25 14:26:31;;;;;;;45.57;33.77;;;6.00;99.90;;;;;;5043102;28;21051;-70
2022/01/25 14:29:12;;;;;;;46.07;34.60;;;6.00;99.90;;;;;;5044287;28;20416;-73
2022/01/25 14:31:43;;;;;;;41.33;32.90;;;5.90;99.90;;;;;;5043352;28;20214;-70
2022/01/25 14:34:12;;;;;;;44.20;34.13;;;5.80;99.90;;;;;;5043627;28;20425;-70
2022/01/25 14:36:40;;;;;;;45.00;33.87;;;5.70;99.90;;;;;;5043059;28;20401;-70
2022/01/25 14:39:06;;;;;;;46.43;34.20;;;5.20;99.90;;;;;;5043658;28;20427;-72
2022/01/25 14:41:34;;;;;;;49.03;36.03;;;5.10;99.90;;;;;;5043677;28;20441;-70
2022/01/25 14:44:11;;;;;;;46.63;34.43;;;5.10;99.90;;;;;;5042462;28;20814;-67
2022/01/25 14:46:40;;;;;;;47.40;34.50;;;5.00;99.90;;;;;;5043332;28;20423;-67
2022/01/25 14:49:29;;;;;;;46.33;36.17;;;5.00;99.90;;;;;;5044270;28;20586;-68
2022/01/25 14:52:04;;;;;;;47.03;33.00;;;5.00;99.90;;;;;;5043251;28;20837;-69
2022/01/25 14:54:35;;;;;;;51.83;34.73;;;5.00;99.90;;;;;;5043579;28;20967;-67
2022/01/25 14:57:08;;;;;;;50.13;34.27;;;5.20;99.90;;;;;;5043388;28;20432;-68
2022/01/25 14:59:36;;;;;;;51.23;34.23;;;5.20;99.90;;;;;;5042067;28;21243;-73
2022/01/25 15:02:09;;;;;;;49.90;35.13;;;5.20;99.90;;;;;;5025559;28;20444;-70
2022/01/25 15:04:40;;;;;;;45.10;33.93;;;5.10;99.90;;;;;;5025330;28;20465;-68
2022/01/25 15:07:08;;;;;;;51.43;36.80;;;5.10;99.90;;;;;;5043616;28;20408;-68
2022/01/25 15:09:33;;;;;;;52.83;37.40;;;5.00;99.90;;;;;;5025313;28;20424;-61